Orbital elements of FENGYUN 1C DEB
| Launched | 9 May 1999 |
| Flight ended | – |
| Launch site | Taiyuan Space Center, PRC |
| Owner | People's Republic of China |
| NORAD ID | 32093 |
| Date fetched |
Epoch osculation |
Inc. [°] |
Ecc. | RA asc node [hr] |
Arg Peri. [°] |
Mean anom [°] |
Mean motion [rev/day] |
Abs. mag |
| Date fetched |
Epoch osculation |
Inc. [°] |
Ecc. | RA asc node [hr] |
Arg Peri. [°] |
Mean anom [°] |
Mean motion [rev/day] |
Abs. mag |
| 2026 May 08 17:57 | 2026 May 03 13:17:26 | 98.9063 | 0.00778 | 23.1106 | 295.3499 | 63.9644 | 14.37994 | – |
| 2026 May 07 17:58 | 2026 May 03 13:17:26 | 98.9063 | 0.00778 | 23.1106 | 295.3499 | 63.9644 | 14.37994 | – |
| 2026 May 06 17:57 | 2026 May 03 13:17:26 | 98.9063 | 0.00778 | 23.1106 | 295.3499 | 63.9644 | 14.37994 | – |
| 2026 May 05 17:57 | 2026 May 03 13:17:26 | 98.9063 | 0.00778 | 23.1106 | 295.3499 | 63.9644 | 14.37994 | – |
| 2026 May 04 17:57 | 2026 Apr 30 08:28:24 | 98.9068 | 0.00779 | 22.8894 | 304.9232 | 63.9644 | 14.37994 | – |
| 2026 May 03 17:57 | 2026 Apr 30 08:28:24 | 98.9068 | 0.00779 | 22.8894 | 304.9232 | 63.9644 | 14.37994 | – |
| 2026 May 02 17:57 | 2026 Apr 30 08:28:24 | 98.9068 | 0.00779 | 22.8894 | 304.9232 | 63.9644 | 14.37994 | – |
| 2026 May 01 17:56 | 2026 Apr 30 08:28:24 | 98.9068 | 0.00779 | 22.8894 | 304.9232 | 63.9644 | 14.37994 | – |
| 2026 Apr 30 17:56 | 2026 Apr 30 08:28:24 | 98.9068 | 0.00779 | 22.8894 | 304.9232 | 63.9644 | 14.37994 | – |
| 2026 Apr 29 17:57 | 2026 Apr 22 01:44:58 | 98.9081 | 0.00783 | 22.3173 | 329.5266 | 63.9644 | 14.37994 | – |
| 2026 Apr 28 17:56 | 2026 Apr 22 01:44:58 | 98.9081 | 0.00783 | 22.3173 | 329.5266 | 63.9644 | 14.37994 | – |
| 2026 Apr 27 17:58 | 2026 Apr 22 01:44:58 | 98.9081 | 0.00783 | 22.3173 | 329.5266 | 63.9644 | 14.37994 | – |
| 2026 Apr 26 17:58 | 2026 Apr 22 01:44:58 | 98.9081 | 0.00783 | 22.3173 | 329.5266 | 63.9644 | 14.37994 | – |
| 2026 Apr 25 17:58 | 2026 Apr 22 01:44:58 | 98.9081 | 0.00783 | 22.3173 | 329.5266 | 63.9644 | 14.37994 | – |
| 2026 Apr 24 17:59 | 2026 Apr 22 01:44:58 | 98.9081 | 0.00783 | 22.3173 | 329.5266 | 63.9644 | 14.37994 | – |
| 2026 Apr 23 17:57 | 2026 Apr 18 20:55:53 | 98.9085 | 0.00785 | 22.0961 | 338.9894 | 63.9644 | 14.37994 | – |
| 2026 Apr 22 17:57 | 2026 Apr 18 20:55:53 | 98.9085 | 0.00785 | 22.0961 | 338.9894 | 63.9644 | 14.37994 | – |
| 2026 Apr 21 17:57 | 2026 Apr 18 20:55:53 | 98.9085 | 0.00785 | 22.0961 | 338.9894 | 63.9644 | 14.37994 | – |
| 2026 Apr 20 17:57 | 2026 Apr 18 20:55:53 | 98.9085 | 0.00785 | 22.0961 | 338.9894 | 63.9644 | 14.37994 | – |
| 2026 Apr 19 17:58 | 2026 Apr 18 20:55:53 | 98.9085 | 0.00785 | 22.0961 | 338.9894 | 63.9644 | 14.37994 | – |
| 2026 Apr 18 17:56 | 2026 Apr 11 13:35:06 | 98.9100 | 0.00790 | 21.5913 | 0.4764 | 63.9644 | 14.37994 | – |
| 2026 Apr 16 17:57 | 2026 Apr 11 13:35:06 | 98.9100 | 0.00790 | 21.5913 | 0.4764 | 63.9644 | 14.37994 | – |
| 2026 Apr 14 17:57 | 2026 Apr 11 13:35:06 | 98.9100 | 0.00790 | 21.5913 | 0.4764 | 63.9644 | 14.37994 | – |
| 2026 Apr 13 17:57 | 2026 Apr 11 13:35:06 | 98.9100 | 0.00790 | 21.5913 | 0.4764 | 63.9644 | 14.37994 | – |
| 2026 Apr 12 17:57 | 2026 Apr 08 13:46:35 | 98.9106 | 0.00792 | 21.3845 | 9.2929 | 63.9644 | 14.37994 | – |
| 2026 Apr 11 17:57 | 2026 Apr 08 13:46:35 | 98.9106 | 0.00792 | 21.3845 | 9.2929 | 63.9644 | 14.37994 | – |